Hlavní strana
METAR-TAF:

METAR-TAF

Letiště :

Sandane, Norsko

zeměpisná šířka: 61-50N, zeměpisná délka: 006-07E, výška: 6 m

Aktuální stav počasí

Zpráva byla vytvořena před 25 minutami, v 07:50 UTC
vítr z různých směrů 5 kt
Teplota 14°C
Vlhkost vzduchu 72%
Tlak 1016 hPa
Viditelnost 10 km a více
Skoro jasno ve výšce 2800 ft
Oblačno až skoro zataženo ve výšce 3500 ft
přeháňky v blízkosti

METAR: ENSD 150750Z VRB05KT 9999 VCSH FEW028 BKN035 14/09 Q1016 RMK WIND 1138FT 21006KT

Čas: 09:15 (08:15 UTC)


TAF: chybějící

Stav a předpovědi počasí z více než 4 000 letišť (zprávy METAR a TAF).

Červené a žluté tečky na mapě představují dostupné meteorologické stanice.

Když kurzor umístíte na tečku, zobrazí se název stanice.

Pak kliknutím zobrazíte stav a předpověď počasí.

Chcete-li změnit mapu, kliknutím na zelené tlačítko se znaménkem +mapu přiblížíte, kliknutím na zelené tlačítko se znaménkem – mapu oddálíte a kliknutím na zelené šipky přejdete na sousední mapy.


METAR-TAF: